Time;durP1;ratioP1;P1;durP2;ratioP2;P2;SDS_P1;SDS_P2;PMS_P1;PMS_P2;Temp;Humidity;BMP_temperature;BMP_pressure;BME280_temperature;BME280_humidity;BME280_pressure;Samples;Min_cycle;Max_cycle;Signal;HPM_P1;HPM_P2
2021/11/12 00:13:32;;;;;;;17.23;8.75;;;;;;;-149.78;100.00;50453.84;5062880;28;20392;-62
2021/11/12 00:16:03;;;;;;;17.35;8.45;;;;;;;-149.78;100.00;50451.88;5063883;28;20040;-62
2021/11/12 00:18:31;;;;;;;15.73;8.40;;;;;;;-149.78;100.00;50440.16;5059547;28;20528;-62
2021/11/12 00:20:59;;;;;;;14.55;8.52;;;;;;;-149.78;100.00;50459.72;5059618;28;20426;-62
2021/11/12 00:23:26;;;;;;;13.43;7.72;;;;;;;-149.78;100.00;50461.66;5053752;28;20037;-62
2021/11/12 00:25:52;;;;;;;14.18;8.10;;;;;;;-149.78;100.00;50475.34;5061195;28;20063;-62
2021/11/12 00:28:21;;;;;;;19.20;8.00;;;;;;;-149.78;100.00;50432.31;5057318;28;20173;-62
2021/11/12 00:38:45;;;;;;;19.52;8.45;;;;;;;-149.78;100.00;50447.97;5058931;28;20029;-62
2021/11/12 00:43:42;;;;;;;12.50;7.55;;;;;;;-149.78;100.00;50479.28;5060247;28;20041;-62
2021/11/12 00:49:09;;;;;;;15.18;8.02;;;;;;;-149.78;100.00;50428.41;5024573;28;20079;-62
2021/11/12 00:51:45;;;;;;;13.55;7.63;;;;;;;-149.78;100.00;50416.69;5063181;28;20033;-61
2021/11/12 00:54:13;;;;;;;11.45;6.90;;;;;;;-149.78;100.00;50491.00;5057485;28;20036;-62
2021/11/12 00:56:38;;;;;;;16.23;7.03;;;;;;;-149.78;100.00;50465.56;5064202;28;20029;-62
2021/11/12 00:59:06;;;;;;;15.98;6.97;;;;;;;-149.78;100.00;50459.72;5063400;28;20361;-62
2021/11/12 01:01:34;;;;;;;13.90;7.20;;;;;;;-149.78;100.00;50424.50;5064707;28;20040;-62
2021/11/12 01:04:02;;;;;;;16.73;8.88;;;;;;;-149.78;100.00;50447.97;5066471;28;20024;-62
2021/11/12 01:06:28;;;;;;;15.13;6.72;;;;;;;-149.78;100.00;50447.97;5070543;28;20119;-62
2021/11/12 01:08:54;;;;;;;12.40;6.85;;;;;;;-149.78;100.00;50479.28;5068525;28;20040;-62
2021/11/12 01:11:21;;;;;;;18.58;7.13;;;;;;;-149.78;100.00;50467.53;5064965;28;20056;-62
2021/11/12 01:13:49;;;;;;;10.90;6.57;;;;;;;-149.78;100.00;50483.19;5055776;28;20025;-62
2021/11/12 01:16:16;;;;;;;12.82;6.75;;;;;;;-149.78;100.00;50426.47;5064777;28;20040;-62
2021/11/12 01:18:42;;;;;;;15.07;6.47;;;;;;;-149.78;100.00;50467.53;5061282;28;20023;-62
2021/11/12 01:21:11;;;;;;;16.02;6.22;;;;;;;-149.78;100.00;50424.50;5053168;28;20037;-62
2021/11/12 01:23:39;;;;;;;11.00;5.18;;;;;;;-149.78;100.00;50451.88;5061848;28;20487;-62
2021/11/12 01:26:07;;;;;;;11.32;5.60;;;;;;;-149.78;100.00;50455.81;5060811;28;20037;-62
2021/11/12 01:28:33;;;;;;;10.57;5.75;;;;;;;-149.78;100.00;50434.28;5052601;28;20060;-62
2021/11/12 01:30:59;;;;;;;16.20;5.90;;;;;;;-149.78;100.00;50451.88;5062667;28;20052;-62
2021/11/12 01:33:25;;;;;;;9.95;5.18;;;;;;;-149.78;100.00;50455.81;5056186;28;20041;-62
2021/11/12 01:35:54;;;;;;;11.65;5.60;;;;;;;-149.78;100.00;50463.63;5063362;28;20037;-62
2021/11/12 01:38:20;;;;;;;10.98;5.50;;;;;;;-149.78;100.00;50420.59;5049978;28;20025;-62
2021/11/12 01:40:47;;;;;;;11.77;5.57;;;;;;;-149.78;100.00;50432.31;5057646;28;20043;-62
2021/11/12 01:43:21;;;;;;;13.35;6.05;;;;;;;-149.78;100.00;50471.44;5067437;28;20564;-62
2021/11/12 01:46:09;;;;;;;12.88;5.68;;;;;;;-149.78;100.00;50467.53;5054329;28;20028;-62
2021/11/12 02:01:38;;;;;;;11.38;6.05;;;;;;;-149.78;100.00;50436.25;5055806;28;20037;-62
2021/11/12 02:04:06;;;;;;;;;;;;;;;-149.78;100.00;50461.66;5064798;28;20110;-62
2021/11/12 02:06:32;;;;;;;14.45;5.47;;;;;;;-149.78;100.00;50455.81;5071106;28;19920;-62
2021/11/12 02:09:00;;;;;;;8.65;4.93;;;;;;;-149.78;100.00;50447.97;5063616;28;20120;-62
2021/11/12 02:11:26;;;;;;;10.52;4.72;;;;;;;-149.78;100.00;50436.25;5065734;28;20032;-62
2021/11/12 02:13:51;;;;;;;9.52;4.35;;;;;;;-149.78;100.00;50471.44;5064743;28;20404;-62
2021/11/12 02:16:25;;;;;;;11.20;5.22;;;;;;;-149.78;100.00;50491.00;5068190;28;20190;-62
2021/11/12 02:18:52;;;;;;;12.27;4.78;;;;;;;-149.78;100.00;50459.72;5066139;28;20090;-62
2021/11/12 02:24:13;;;;;;;9.43;5.35;;;;;;;-149.78;100.00;50479.28;5064077;28;20395;-62
2021/11/12 02:26:42;;;;;;;8.43;4.82;;;;;;;-149.78;100.00;50455.81;5067959;28;20480;-62
2021/11/12 02:29:11;;;;;;;12.32;6.35;;;;;;;-149.78;100.00;50467.53;5071664;28;20044;-62
2021/11/12 02:31:39;;;;;;;11.50;4.85;;;;;;;-149.78;100.00;50479.28;5074543;28;20028;-62
2021/11/12 02:34:11;;;;;;;8.23;5.10;;;;;;;-149.78;100.00;50461.66;5059815;28;20032;-62
2021/11/12 02:36:38;;;;;;;9.65;5.55;;;;;;;-149.78;100.00;50440.16;5063588;28;20360;-62
2021/11/12 02:39:07;;;;;;;8.27;4.53;;;;;;;-149.78;100.00;50459.72;5073466;28;20036;-62
2021/11/12 02:41:33;;;;;;;8.20;4.97;;;;;;;-149.78;100.00;50455.81;5072805;28;20387;-62
2021/11/12 02:43:59;;;;;;;11.13;4.90;;;;;;;-149.78;100.00;50487.09;5072420;28;20041;-62
2021/11/12 02:46:25;;;;;;;11.13;5.45;;;;;;;-149.78;100.00;50463.63;5056663;28;20406;-62
2021/11/12 02:48:52;;;;;;;9.40;5.13;;;;;;;-149.78;100.00;50491.00;5066248;28;20041;-62
2021/11/12 02:51:23;;;;;;;8.65;4.35;;;;;;;-149.78;100.00;50440.16;5069285;28;20029;-62
2021/11/12 02:53:50;;;;;;;10.10;5.15;;;;;;;-149.78;100.00;50455.81;5070327;28;20081;-62
2021/11/12 02:56:34;;;;;;;8.02;4.72;;;;;;;-149.78;100.00;50502.75;5071524;28;20194;-62
2021/11/12 02:59:10;;;;;;;9.73;4.20;;;;;;;-149.78;100.00;50467.53;5071634;28;20036;-62
2021/11/12 03:01:42;;;;;;;10.23;5.40;;;;;;;-149.78;100.00;50436.25;5069355;28;20487;-62
2021/11/12 03:04:08;;;;;;;9.52;4.32;;;;;;;-149.78;100.00;50463.63;5069224;28;20472;-62
2021/11/12 03:06:35;;;;;;;7.25;4.07;;;;;;;-149.78;100.00;50467.53;5066708;28;20468;-62
2021/11/12 03:09:06;;;;;;;8.02;4.70;;;;;;;-149.78;100.00;50451.88;5068458;28;20040;-62
2021/11/12 03:11:35;;;;;;;10.68;4.93;;;;;;;-149.78;100.00;50444.06;5067231;28;20089;-62
2021/11/12 03:14:02;;;;;;;9.15;4.70;;;;;;;-149.78;100.00;50455.81;5068553;28;20043;-62
2021/11/12 03:16:28;;;;;;;8.27;4.18;;;;;;;-149.78;100.00;50479.28;5063926;28;20041;-62
2021/11/12 03:18:56;;;;;;;8.68;5.10;;;;;;;-149.78;100.00;50432.31;5067380;28;20032;-62
2021/11/12 03:21:24;;;;;;;12.07;4.45;;;;;;;-149.78;100.00;50459.72;5065438;28;20375;-62
2021/11/12 03:24:08;;;;;;;9.90;4.00;;;;;;;-149.78;100.00;50479.28;5065266;28;20033;-62
2021/11/12 04:22:13;;;;;;;10.57;4.88;;;;;;;-149.78;100.00;50475.34;5055665;28;20480;-62
2021/11/12 05:03:00;;;;;;;15.57;5.93;;;;;;;-149.78;100.00;50469.50;5060134;28;20056;-62
2021/11/12 05:43:34;;;;;;;12.95;6.90;;;;;;;-149.78;100.00;50463.63;5062621;28;20037;-62
2021/11/12 05:51:34;;;;;;;13.60;6.38;;;;;;;-149.78;100.00;50483.19;5057049;28;20404;-62
2021/11/12 05:56:47;;;;;;;13.93;6.60;;;;;;;-149.78;100.00;50467.53;5062313;28;20081;-62
2021/11/12 05:59:13;;;;;;;12.63;6.13;;;;;;;-149.78;100.00;50481.22;5066807;28;20037;-62
2021/11/12 06:01:40;;;;;;;16.30;8.02;;;;;;;-149.78;100.00;50483.19;5066817;28;20036;-62
2021/11/12 06:04:07;;;;;;;13.65;6.70;;;;;;;-149.78;100.00;50461.66;5059726;28;20033;-62
2021/11/12 06:06:33;;;;;;;14.15;7.05;;;;;;;-149.78;100.00;50461.66;5067065;28;20040;-62
2021/11/12 06:08:59;;;;;;;16.80;7.13;;;;;;;-149.78;100.00;50440.16;5069949;28;20029;-63
2021/11/12 06:11:27;;;;;;;11.73;6.78;;;;;;;-149.78;100.00;50467.53;5072001;28;20410;-63
2021/11/12 06:13:55;;;;;;;16.13;7.03;;;;;;;-149.78;100.00;50479.28;5070811;28;20029;-63
2021/11/12 06:16:22;;;;;;;14.38;6.88;;;;;;;-149.78;100.00;50504.69;5048779;28;20040;-63
2021/11/12 06:18:47;;;;;;;12.77;6.32;;;;;;;-149.78;100.00;50461.66;5069769;28;20028;-63
2021/11/12 06:21:13;;;;;;;10.45;5.88;;;;;;;-149.78;100.00;50498.81;5069010;28;20032;-63
2021/11/12 06:23:40;;;;;;;11.32;6.43;;;;;;;-149.78;100.00;50502.75;5071608;28;20040;-63
2021/11/12 06:26:06;;;;;;;14.45;6.32;;;;;;;-149.78;100.00;50491.00;5072048;28;21263;-63
2021/11/12 06:28:32;;;;;;;12.55;6.35;;;;;;;-149.78;100.00;50471.44;5070815;28;20513;-63
2021/11/12 06:31:00;;;;;;;13.63;6.32;;;;;;;-149.78;100.00;50487.09;5065369;28;20060;-63
2021/11/12 06:33:26;;;;;;;14.63;7.13;;;;;;;-149.78;100.00;50447.97;5058440;28;20110;-63
2021/11/12 06:35:53;;;;;;;15.05;7.28;;;;;;;-149.78;100.00;50473.41;5069525;28;20047;-62
2021/11/12 06:38:24;;;;;;;11.63;7.07;;;;;;;-149.78;100.00;50475.34;5069612;28;20057;-62
2021/11/12 06:40:50;;;;;;;18.05;7.50;;;;;;;-149.78;100.00;50463.63;5061129;28;20028;-62
2021/11/12 06:43:29;;;;;;;16.15;7.53;;;;;;;-149.78;100.00;50479.28;5061078;28;20452;-62
2021/11/12 06:51:24;;;;;;;14.68;7.10;;;;;;;-149.78;100.00;50491.00;5069999;28;20029;-63
2021/11/12 06:53:52;;;;;;;19.58;6.50;;;;;;;-149.78;100.00;50502.75;5071447;28;20085;-63
2021/11/12 06:56:19;;;;;;;12.57;6.95;;;;;;;-149.78;100.00;50459.72;5068777;28;20030;-63
2021/11/12 06:58:46;;;;;;;13.05;6.55;;;;;;;-149.78;100.00;50479.28;5069326;28;20376;-63
2021/11/12 07:01:13;;;;;;;20.42;8.68;;;;;;;-149.78;100.00;50475.34;5067222;28;20031;-63
2021/11/12 07:03:39;;;;;;;15.55;6.38;;;;;;;-149.78;100.00;50453.84;5070649;28;20036;-63
2021/11/12 07:06:06;;;;;;;12.32;6.00;;;;;;;-149.78;100.00;50440.16;5069751;28;20055;-63
2021/11/12 07:08:32;;;;;;;15.38;6.50;;;;;;;-149.78;100.00;50471.44;5072622;28;20174;-63
2021/11/12 07:10:58;;;;;;;11.65;6.30;;;;;;;-149.78;100.00;50475.34;5067198;28;20421;-62
2021/11/12 07:13:33;;;;;;;12.65;6.18;;;;;;;-149.78;100.00;50475.34;5069750;28;20035;-62
2021/11/12 07:15:59;;;;;;;11.70;6.13;;;;;;;-149.78;100.00;50459.72;5066423;28;20025;-63
2021/11/12 07:18:27;;;;;;;14.07;6.45;;;;;;;-149.78;100.00;50455.81;5071362;28;20113;-63
2021/11/12 07:20:54;;;;;;;13.13;6.20;;;;;;;-149.78;100.00;50453.84;5068813;28;20479;-62
2021/11/12 07:23:23;;;;;;;12.18;6.05;;;;;;;-149.78;100.00;50444.06;5070182;28;20117;-65
2021/11/12 07:25:50;;;;;;;12.07;6.40;;;;;;;-149.78;100.00;50475.34;5071047;28;20032;-63
2021/11/12 07:28:15;;;;;;;13.02;6.03;;;;;;;-149.78;100.00;50447.97;5063361;28;20032;-64
2021/11/12 07:30:42;;;;;;;12.40;6.20;;;;;;;-149.78;100.00;50471.44;5060590;28;20392;-64
2021/11/12 07:33:10;;;;;;;16.88;7.22;;;;;;;-149.78;100.00;50467.53;5069114;28;20043;-64
2021/11/12 07:35:43;;;;;;;14.85;7.35;;;;;;;-149.78;100.00;50475.34;5058207;28;20028;-64
2021/11/12 07:38:19;;;;;;;15.55;5.93;;;;;;;-149.78;100.00;50459.72;5059448;28;20044;-64
2021/11/12 07:45:56;;;;;;;9.77;4.60;;;;;;;-149.78;100.00;50440.16;5069200;28;20056;-64
2021/11/12 07:48:23;;;;;;;10.85;4.47;;;;;;;-149.78;100.00;50479.28;5069285;28;20025;-64
2021/11/12 07:50:49;;;;;;;10.85;5.05;;;;;;;-149.78;100.00;50459.72;5068088;28;20032;-65
2021/11/12 07:53:15;;;;;;;13.60;5.18;;;;;;;-149.78;100.00;50412.78;5066284;28;20396;-65
2021/11/12 07:55:41;;;;;;;10.32;5.10;;;;;;;-149.78;100.00;50455.81;5069673;28;20453;-65
2021/11/12 07:58:06;;;;;;;10.70;5.80;;;;;;;-149.78;100.00;50455.81;5069994;28;20025;-68
2021/11/12 08:00:33;;;;;;;13.30;6.20;;;;;;;-149.78;100.00;50483.19;5070798;28;20036;-68
2021/11/12 08:02:59;;;;;;;14.02;6.40;;;;;;;-149.78;100.00;50459.72;5071222;28;20032;-67
2021/11/12 08:05:29;;;;;;;13.80;5.68;;;;;;;-149.78;100.00;50440.16;5067585;28;20032;-67
2021/11/12 08:08:00;;;;;;;11.65;5.47;;;;;;;-149.78;100.00;50453.84;5067736;28;20039;-68
2021/11/12 08:10:29;;;;;;;9.55;5.63;;;;;;;-149.78;100.00;50479.28;5068632;28;20177;-65
2021/11/12 08:13:11;;;;;;;12.68;4.95;;;;;;;-149.78;100.00;50418.63;5070426;28;20107;-65
2021/11/12 08:18:13;;;;;;;12.23;4.80;;;;;;;-149.78;100.00;50465.56;5068543;28;20464;-65
2021/11/12 08:20:54;;;;;;;13.73;4.47;;;;;;;-149.78;100.00;50414.72;5068038;28;20029;-65
2021/11/12 08:23:26;;;;;;;12.82;4.65;;;;;;;-149.78;100.00;50471.44;5084638;28;20044;-65
2021/11/12 08:26:06;;;;;;;;;;;;;;;-149.78;100.00;50463.63;5068833;28;20452;-64
2021/11/12 08:34:13;;;;;;;11.73;5.00;;;;;;;-149.78;100.00;50434.28;5053390;28;20037;-64
2021/11/12 08:39:14;;;;;;;13.73;4.90;;;;;;;-149.78;100.00;50422.56;5064300;28;20104;-64
2021/11/12 08:41:46;;;;;;;15.50;5.40;;;;;;;-149.78;100.00;50459.72;5059557;28;20553;-64
2021/11/12 08:47:15;;;;;;;13.85;5.18;;;;;;;-149.78;100.00;50440.16;5038978;28;20060;-64
2021/11/12 08:49:42;;;;;;;13.57;4.70;;;;;;;-149.78;100.00;50467.53;5054439;28;20111;-64
2021/11/12 08:52:11;;;;;;;13.50;4.95;;;;;;;-149.78;100.00;50469.50;5052742;28;20088;-64
2021/11/12 08:54:39;;;;;;;10.95;5.13;;;;;;;-149.78;100.00;50463.63;5063174;28;20037;-64
2021/11/12 08:57:11;;;;;;;15.43;4.70;;;;;;;-149.78;100.00;50475.34;5071433;28;20029;-64
2021/11/12 08:59:40;;;;;;;12.48;4.28;;;;;;;-149.78;100.00;50457.75;5065714;28;20020;-64
2021/11/12 09:02:09;;;;;;;9.60;4.60;;;;;;;-149.78;100.00;50420.59;5070535;28;20063;-65
2021/11/12 09:04:36;;;;;;;15.38;5.10;;;;;;;-149.78;100.00;50440.16;5064665;28;20045;-64
2021/11/12 09:07:02;;;;;;;17.60;5.25;;;;;;;-149.78;100.00;50447.97;5055504;28;20508;-65
2021/11/12 09:09:28;;;;;;;11.48;5.55;;;;;;;-149.78;100.00;50416.69;5071859;28;20480;-65
2021/11/12 09:11:55;;;;;;;10.48;4.20;;;;;;;-149.78;100.00;50424.50;5070795;28;20075;-66
2021/11/12 09:14:24;;;;;;;13.20;5.10;;;;;;;-149.78;100.00;50463.63;5072594;28;20043;-65
2021/11/12 09:16:49;;;;;;;9.75;4.40;;;;;;;-149.78;100.00;50449.94;5073606;28;20036;-64
2021/11/12 09:19:15;;;;;;;13.40;5.30;;;;;;;-149.78;100.00;50459.72;5074861;28;20028;-64
2021/11/12 09:21:46;;;;;;;14.27;4.93;;;;;;;-149.78;100.00;50463.63;5069428;28;20115;-64
2021/11/12 09:24:13;;;;;;;20.20;4.55;;;;;;;-149.78;100.00;50463.63;5069376;28;20441;-65
2021/11/12 09:26:40;;;;;;;11.57;4.47;;;;;;;-149.78;100.00;50424.50;5058089;28;20131;-65
2021/11/12 09:29:08;;;;;;;10.98;4.43;;;;;;;-149.78;100.00;50438.19;5068653;28;20041;-64
2021/11/12 09:31:34;;;;;;;21.25;5.40;;;;;;;-149.78;100.00;50408.84;5061550;28;20068;-64
2021/11/12 09:34:01;;;;;;;14.02;4.75;;;;;;;-149.78;100.00;50381.47;5074835;28;20067;-64
2021/11/12 09:36:27;;;;;;;18.90;4.20;;;;;;;-149.78;100.00;50459.72;5061730;28;20029;-63
2021/11/12 09:38:53;;;;;;;17.33;3.83;;;;;;;-149.78;100.00;50459.72;5065778;28;20033;-63
2021/11/12 09:41:19;;;;;;;13.90;3.55;;;;;;;-149.78;100.00;50420.59;5059872;28;20090;-63
2021/11/12 09:43:47;;;;;;;14.00;3.70;;;;;;;-149.78;100.00;50446.03;5071901;28;20036;-63
2021/11/12 09:46:13;;;;;;;13.70;3.85;;;;;;;-149.78;100.00;50440.16;5071797;28;20037;-63
2021/11/12 09:48:40;;;;;;;11.60;3.30;;;;;;;-149.78;100.00;50412.78;5070687;28;20032;-63
2021/11/12 09:51:05;;;;;;;13.02;3.80;;;;;;;-149.78;100.00;50404.94;5073290;28;20032;-64
2021/11/12 09:53:32;;;;;;;13.40;3.20;;;;;;;-149.78;100.00;50428.41;5068572;28;20028;-64
2021/11/12 09:55:58;;;;;;;13.63;3.70;;;;;;;-149.78;100.00;50420.59;5068105;28;20037;-64
2021/11/12 09:58:24;;;;;;;14.68;4.22;;;;;;;-149.78;100.00;50451.88;5070127;28;20078;-64
2021/11/12 10:00:59;;;;;;;11.48;4.13;;;;;;;-149.78;100.00;50412.78;5072554;28;20047;-65
2021/11/12 10:03:43;;;;;;;12.73;3.17;;;;;;;-149.78;100.00;50432.31;5072765;28;20037;-63
2021/11/12 10:06:24;;;;;;;19.23;3.35;;;;;;;-149.78;100.00;50404.94;5060447;28;20032;-63
2021/11/12 10:08:53;;;;;;;13.32;3.13;;;;;;;-149.78;100.00;50475.34;5071622;28;20028;-63
2021/11/12 10:11:30;;;;;;;8.82;2.53;;;;;;;-149.78;100.00;50408.84;5068586;28;20521;-63
2021/11/12 10:14:00;;;;;;;11.23;3.42;;;;;;;-149.78;100.00;50387.34;5059138;28;20041;-63
2021/11/12 10:16:39;;;;;;;12.55;2.80;;;;;;;-149.78;100.00;50420.59;5064432;28;20140;-63
2021/11/12 10:19:19;;;;;;;14.05;2.85;;;;;;;-149.78;100.00;50420.59;5058153;28;20033;-63
2021/11/12 10:22:07;;;;;;;17.42;4.18;;;;;;;-149.78;100.00;50404.94;5061707;28;20456;-63
2021/11/12 10:24:38;;;;;;;19.17;3.42;;;;;;;-149.78;100.00;50420.59;5057050;28;20044;-63
2021/11/12 10:27:11;;;;;;;14.57;2.63;;;;;;;-149.78;100.00;50420.59;5054209;28;20036;-63
2021/11/12 10:29:58;;;;;;;14.05;3.33;;;;;;;-149.78;100.00;50455.81;5059233;28;20044;-63
2021/11/12 10:32:28;;;;;;;14.35;3.35;;;;;;;-149.78;100.00;50471.44;5069173;28;20048;-63
2021/11/12 10:35:00;;;;;;;19.55;3.33;;;;;;;-149.78;100.00;50428.41;5056774;28;20210;-63
2021/11/12 10:37:31;;;;;;;18.92;4.43;;;;;;;-149.78;100.00;50449.94;5070050;28;20016;-63
2021/11/12 10:40:04;;;;;;;17.42;3.85;;;;;;;-149.78;100.00;50436.25;5052383;28;20141;-63
2021/11/12 10:42:34;;;;;;;21.67;3.47;;;;;;;-149.78;100.00;50424.50;5059121;28;20360;-63
2021/11/12 10:45:04;;;;;;;17.13;3.55;;;;;;;-149.78;100.00;50436.25;5063880;28;20039;-63
2021/11/12 10:47:32;;;;;;;19.35;3.30;;;;;;;-149.78;100.00;50408.84;5069951;28;20372;-63
2021/11/12 10:50:08;;;;;;;19.92;3.05;;;;;;;-149.78;100.00;50418.63;5056639;28;20481;-63
2021/11/12 10:52:37;;;;;;;15.48;2.88;;;;;;;-149.78;100.00;50432.31;5062967;28;20060;-63
2021/11/12 10:55:22;;;;;;;15.57;2.53;;;;;;;-149.78;100.00;50428.41;5054670;28;20041;-63
2021/11/12 10:57:54;;;;;;;17.23;3.42;;;;;;;-149.78;100.00;50447.97;5063720;28;20053;-63
2021/11/12 11:00:28;;;;;;;11.27;2.47;;;;;;;-149.78;100.00;50414.72;5069363;28;20030;-63
2021/11/12 11:02:55;;;;;;;20.55;3.67;;;;;;;-149.78;100.00;50401.03;5067862;28;20060;-63
2021/11/12 11:05:27;;;;;;;18.70;2.55;;;;;;;-149.78;100.00;50434.28;5071307;28;20032;-63
2021/11/12 11:07:53;;;;;;;8.73;2.35;;;;;;;-149.78;100.00;50412.78;5070246;28;20480;-63
2021/11/12 11:10:27;;;;;;;13.75;2.67;;;;;;;-149.78;100.00;50451.88;5065728;28;20503;-63
2021/11/12 11:12:53;;;;;;;14.68;2.50;;;;;;;-149.78;100.00;50428.41;5062406;28;20024;-63
2021/11/12 11:15:24;;;;;;;16.75;2.97;;;;;;;-149.78;100.00;50416.69;5054777;28;20040;-63
2021/11/12 11:18:20;;;;;;;12.07;2.58;;;;;;;-149.78;100.00;50432.31;5055675;28;20035;-64
2021/11/12 11:21:09;;;;;;;17.23;3.88;;;;;;;-149.78;100.00;50455.81;5058222;28;20499;-63
2021/11/12 11:24:07;;;;;;;18.58;2.85;;;;;;;-149.78;100.00;50451.88;5048743;28;20036;-63
2021/11/12 11:26:48;;;;;;;19.27;3.28;;;;;;;-149.78;100.00;50424.50;5056829;28;20036;-63
2021/11/12 11:29:23;;;;;;;22.75;4.18;;;;;;;-149.78;100.00;50428.41;5059604;28;20048;-63
2021/11/12 11:31:51;;;;;;;19.48;3.95;;;;;;;-149.78;100.00;50412.78;5058568;28;20045;-63
2021/11/12 11:34:18;;;;;;;14.20;3.55;;;;;;;-149.78;100.00;50451.88;5053066;28;20041;-63
2021/11/12 11:36:45;;;;;;;19.33;3.58;;;;;;;-149.78;100.00;50412.78;5066069;28;20043;-63
2021/11/12 11:39:18;;;;;;;14.88;3.40;;;;;;;-149.78;100.00;50428.41;5068270;28;20028;-63
2021/11/12 11:41:46;;;;;;;19.30;3.97;;;;;;;-149.78;100.00;50428.41;5052910;28;20452;-63
2021/11/12 11:44:17;;;;;;;30.92;4.40;;;;;;;-149.78;100.00;50438.19;5066076;28;20056;-64
2021/11/12 11:46:46;;;;;;;10.00;3.08;;;;;;;-149.78;100.00;50430.38;5071792;28;20028;-64
2021/11/12 11:49:15;;;;;;;17.70;4.45;;;;;;;-149.78;100.00;50416.69;5066226;28;20047;-64
2021/11/12 11:51:52;;;;;;;23.23;3.88;;;;;;;-149.78;100.00;50412.78;5070563;28;20028;-64
2021/11/12 11:54:22;;;;;;;22.52;3.70;;;;;;;-149.78;100.00;50369.75;5066444;28;20480;-63
2021/11/12 11:56:56;;;;;;;16.70;3.80;;;;;;;-149.78;100.00;50424.50;5063329;28;20036;-64
2021/11/12 11:59:28;;;;;;;21.80;3.50;;;;;;;-149.78;100.00;50416.69;5064904;28;20037;-63
2021/11/12 12:01:56;;;;;;;20.23;3.50;;;;;;;-149.78;100.00;50432.31;5066117;28;20143;-63
2021/11/12 12:04:29;;;;;;;19.33;3.05;;;;;;;-149.78;100.00;50447.97;5056475;28;20063;-63
2021/11/12 12:07:01;;;;;;;19.30;4.28;;;;;;;-149.78;100.00;50404.94;5066826;28;20111;-64
2021/11/12 12:09:49;;;;;;;18.80;3.65;;;;;;;-149.78;100.00;50451.88;5064002;28;20365;-64
2021/11/12 12:12:29;;;;;;;25.02;4.20;;;;;;;-149.78;100.00;50428.41;5064823;28;20051;-64
2021/11/12 12:15:21;;;;;;;17.95;3.65;;;;;;;-149.78;100.00;50432.31;5069428;28;20056;-63
2021/11/12 12:18:06;;;;;;;23.47;4.10;;;;;;;-149.78;100.00;50436.25;5042429;28;20193;-63
2021/11/12 12:31:42;;;;;;;23.50;3.72;;;;;;;-149.78;100.00;50473.41;5071197;28;20048;-63
2021/11/12 13:20:24;;;;;;;16.95;3.10;;;;;;;-149.78;100.00;50381.47;5067400;28;20035;-64
2021/11/12 13:25:38;;;;;;;17.13;3.03;;;;;;;-149.78;100.00;50424.50;5067929;28;20114;-64
2021/11/12 13:28:25;;;;;;;16.83;2.95;;;;;;;-149.78;100.00;50426.47;5054243;28;20041;-64
2021/11/12 13:30:56;;;;;;;12.95;2.50;;;;;;;-149.78;100.00;50436.25;5056859;28;20135;-64
2021/11/12 13:33:41;;;;;;;14.73;3.08;;;;;;;-149.78;100.00;50416.69;5067466;28;20036;-63
2021/11/12 13:36:28;;;;;;;13.80;3.20;;;;;;;-149.78;100.00;50432.31;5068398;28;20028;-64
2021/11/12 13:39:08;;;;;;;12.80;2.30;;;;;;;-149.78;100.00;50420.59;5059465;28;20033;-64
2021/11/12 13:41:39;;;;;;;10.55;2.80;;;;;;;-149.78;100.00;50389.31;5059843;28;20056;-63
2021/11/12 13:44:12;;;;;;;12.45;3.03;;;;;;;-149.78;100.00;50401.03;5065756;28;20376;-64
2021/11/12 13:46:58;;;;;;;13.98;2.88;;;;;;;-149.78;100.00;50401.03;5066284;28;20060;-63
2021/11/12 13:49:34;;;;;;;5.97;2.03;;;;;;;-149.78;100.00;50424.50;5065867;28;20105;-63
2021/11/12 13:52:08;;;;;;;8.77;2.40;;;;;;;-149.78;100.00;50420.59;5067872;28;20093;-63
2021/11/12 13:54:49;;;;;;;8.10;2.13;;;;;;;-149.78;100.00;50424.50;5064627;28;20044;-63
2021/11/12 13:57:24;;;;;;;14.90;2.50;;;;;;;-149.78;100.00;50377.56;5058120;28;20484;-64
2021/11/12 13:59:55;;;;;;;10.63;2.35;;;;;;;-149.78;100.00;50420.59;5065308;28;20055;-64
2021/11/12 14:02:22;;;;;;;9.32;1.75;;;;;;;-149.78;100.00;50424.50;5063384;28;20040;-64
2021/11/12 14:04:47;;;;;;;8.75;2.10;;;;;;;-149.78;100.00;50447.97;5069356;28;20029;-63
2021/11/12 14:07:20;;;;;;;6.50;1.88;;;;;;;-149.78;100.00;50447.97;5066772;28;20399;-64
2021/11/12 14:10:00;;;;;;;5.75;1.75;;;;;;;-149.78;100.00;50432.31;5068752;28;20021;-63
2021/11/12 14:12:26;;;;;;;8.50;1.95;;;;;;;-149.78;100.00;50428.41;5060995;28;20089;-64
2021/11/12 14:15:05;;;;;;;8.68;1.67;;;;;;;-149.78;100.00;50455.81;5070109;28;20029;-64
2021/11/12 14:17:32;;;;;;;10.70;1.75;;;;;;;-149.78;100.00;50397.13;5064362;28;20442;-63
2021/11/12 14:20:25;;;;;;;13.05;2.20;;;;;;;-149.78;100.00;50467.53;5060889;28;20033;-63
2021/11/12 14:23:21;;;;;;;7.65;2.00;;;;;;;-149.78;100.00;50412.78;5060045;28;20057;-63
2021/11/12 14:28:59;;;;;;;9.85;1.92;;;;;;;-149.78;100.00;50430.38;5070010;28;20494;-63
2021/11/12 14:31:46;;;;;;;8.43;1.67;;;;;;;-149.78;100.00;50459.72;5071120;28;20048;-63
2021/11/12 14:39:56;;;;;;;6.30;1.85;;;;;;;-149.78;100.00;50424.50;5048682;28;20040;-63
2021/11/12 14:45:51;;;;;;;10.90;2.25;;;;;;;-149.78;100.00;50434.28;5059495;28;20039;-63
2021/11/12 14:48:29;;;;;;;10.98;2.33;;;;;;;-149.78;100.00;50428.41;5063520;28;20400;-63
2021/11/12 14:58:43;;;;;;;13.13;1.77;;;;;;;-149.78;100.00;50440.16;5064678;28;20024;-63
2021/11/12 15:01:12;;;;;;;8.18;2.15;;;;;;;-149.78;100.00;50459.72;5062997;28;20029;-63
2021/11/12 15:03:47;;;;;;;13.75;2.47;;;;;;;-149.78;100.00;50459.72;5059324;28;20032;-63
2021/11/12 15:06:15;;;;;;;7.80;2.60;;;;;;;-149.78;100.00;50436.25;5060392;28;20047;-63
2021/11/12 15:08:47;;;;;;;7.45;1.95;;;;;;;-149.78;100.00;50420.59;5068209;28;20028;-63
2021/11/12 15:11:15;;;;;;;6.07;1.90;;;;;;;-149.78;100.00;50424.50;5062634;28;20044;-63
2021/11/12 15:13:42;;;;;;;5.80;1.90;;;;;;;-149.78;100.00;50453.84;5058697;28;20099;-63
2021/11/12 15:16:16;;;;;;;6.43;2.30;;;;;;;-149.78;100.00;50420.59;5063305;28;20032;-63
2021/11/12 15:18:42;;;;;;;12.40;2.78;;;;;;;-149.78;100.00;50438.19;5052945;28;20032;-63
2021/11/12 15:21:15;;;;;;;6.20;1.75;;;;;;;-149.78;100.00;50467.53;5055956;28;20032;-63
2021/11/12 15:26:37;;;;;;;8.60;2.17;;;;;;;-149.78;100.00;50420.59;5030585;28;20039;-64
2021/11/12 15:34:14;;;;;;;11.23;1.50;;;;;;;-149.78;100.00;50453.84;5066644;28;20431;-64
2021/11/12 15:36:56;;;;;;;7.50;1.70;;;;;;;-149.78;100.00;50434.28;5067476;28;20039;-64
2021/11/12 15:39:31;;;;;;;3.15;1.50;;;;;;;-149.78;100.00;50436.25;5058799;28;20028;-64
2021/11/12 15:44:41;;;;;;;12.30;1.80;;;;;;;-149.78;100.00;50424.50;5060247;28;20119;-63
2021/11/12 15:49:45;;;;;;;7.03;1.58;;;;;;;-149.78;100.00;50461.66;5069733;28;20037;-64
2021/11/12 15:52:15;;;;;;;5.30;1.75;;;;;;;-149.78;100.00;50451.88;5070839;28;20044;-63
2021/11/12 16:00:13;;;;;;;7.80;1.80;;;;;;;-149.78;100.00;50467.53;5070112;28;20059;-64
2021/11/12 16:18:53;;;;;;;3.63;1.80;;;;;;;-149.78;100.00;50491.00;5067933;28;20459;-63
2021/11/12 16:21:34;;;;;;;6.57;2.03;;;;;;;-149.78;100.00;50447.97;5068324;28;20381;-63
2021/11/12 16:26:38;;;;;;;10.05;1.98;;;;;;;-149.78;100.00;50432.31;5068358;28;20492;-63
2021/11/12 16:31:42;;;;;;;3.10;1.60;;;;;;;-149.78;100.00;50459.72;5070630;28;20116;-63
2021/11/12 16:34:14;;;;;;;4.90;1.60;;;;;;;-149.78;100.00;50455.81;5068022;28;20024;-63
2021/11/12 16:36:45;;;;;;;4.70;1.65;;;;;;;-149.78;100.00;50479.28;5061373;28;20488;-63
2021/11/12 16:39:14;;;;;;;5.05;1.85;;;;;;;-149.78;100.00;50457.75;5067296;28;20031;-63
2021/11/12 16:41:50;;;;;;;6.93;2.10;;;;;;;-149.78;100.00;50434.28;5068558;28;20037;-64
2021/11/12 16:44:44;;;;;;;9.65;2.40;;;;;;;-149.78;100.00;50432.31;5066004;28;20090;-64
2021/11/12 16:47:17;;;;;;;4.53;2.30;;;;;;;-149.78;100.00;50424.50;5067903;28;20036;-64